Terminal Aerodrome Forecast
Issued by NWS

Home | Current Version | Previous Version | Text Only | Print | Product List | Glossary On
Versions: 1 2 3 4 5 6 7 8 9 10 11 12 13 14 15 16 17
000
FTUS43 KSGF 151010 AAC
TAFJLN
TAF AMD
KJLN 151010Z 1510/1606 34012G23KT P6SM OVC025
     FM151200 34010G19KT P6SM SCT200
     FM160000 34004KT P6SM SKC=

USA.gov is the U.S. government's official web portal to all federal, state and local government web resources and services.